Terminal Aerodrome Forecast
Issued by NWS

Current Version | Previous Version | Text Only | Print | Product List | Glossary On
Versions: 1 2 3 4 5 6 7 8 9 10 11 12 13 14 15 16 17 18 19
000
FTUS42 KMLB 240500
TAFFPR
TAF
KFPR 240520Z 2406/2506 05006KT P6SM SCT045 BKN250
     FM241400 06013G20KT P6SM SCT035 SCT250
     FM250000 03009KT P6SM SCT045 SCT250=

USA.gov is the U.S. government's official web portal to all federal, state and local government web resources and services.